Time;durP1;ratioP1;P1;durP2;ratioP2;P2;SDS_P1;SDS_P2;PMS_P1;PMS_P2;Temp;Humidity;BMP_temperature;BMP_pressure;BME280_temperature;BME280_humidity;BME280_pressure;Samples;Min_cycle;Max_cycle;Signal;HPM_P1;HPM_P2
2021/03/22 00:01:01;;;;;;;11.73;3.93;;;6.70;64.60;;;;;;5012540;28;20476;-44
2021/03/22 00:03:28;;;;;;;19.33;4.20;;;6.70;63.80;;;;;;5012672;28;20519;-44
2021/03/22 00:05:55;;;;;;;14.60;5.97;;;6.80;63.70;;;;;;5013472;28;20496;-44
2021/03/22 00:08:23;;;;;;;13.30;3.70;;;6.80;63.80;;;;;;5012320;28;20456;-44
2021/03/22 00:10:50;;;;;;;14.13;5.07;;;6.70;64.00;;;;;;5012410;28;20467;-43
2021/03/22 00:13:20;;;;;;;10.90;5.13;;;6.70;64.10;;;;;;5026876;28;21269;-44
2021/03/22 00:15:47;;;;;;;12.60;4.30;;;6.70;64.00;;;;;;5026887;28;20467;-43
2021/03/22 00:18:17;;;;;;;10.83;3.23;;;6.80;63.70;;;;;;5012951;28;20503;-44
2021/03/22 00:20:46;;;;;;;11.63;3.20;;;6.70;63.70;;;;;;5012898;28;20459;-43
2021/03/22 00:23:12;;;;;;;29.03;4.50;;;6.70;63.60;;;;;;5026967;28;20456;-44
2021/03/22 00:25:39;;;;;;;10.83;4.10;;;6.70;63.60;;;;;;5027307;28;20456;-45
2021/03/22 00:28:08;;;;;;;16.07;3.90;;;6.80;63.40;;;;;;5012261;28;20988;-45
2021/03/22 00:30:38;;;;;;;12.83;4.00;;;6.80;63.80;;;;;;5011960;28;20471;-44
2021/03/22 00:33:05;;;;;;;14.10;3.80;;;6.70;64.00;;;;;;5010790;28;20456;-43
2021/03/22 00:35:32;;;;;;;14.63;4.00;;;6.70;64.10;;;;;;5010909;28;20551;-43
2021/03/22 00:37:58;;;;;;;10.43;4.30;;;6.80;64.30;;;;;;5011530;28;20484;-45
2021/03/22 00:40:29;;;;;;;22.97;5.30;;;6.80;64.00;;;;;;5012728;28;20526;-44
2021/03/22 00:42:56;;;;;;;12.20;4.87;;;6.70;64.20;;;;;;5012905;28;20466;-43
2021/03/22 00:45:26;;;;;;;15.10;6.57;;;6.70;64.60;;;;;;5012722;28;20467;-45
2021/03/22 00:47:53;;;;;;;20.37;4.33;;;6.70;64.50;;;;;;5012709;28;20547;-44
2021/03/22 00:50:20;;;;;;;13.83;3.87;;;6.60;64.70;;;;;;5011678;28;20456;-44
2021/03/22 00:52:47;;;;;;;15.23;4.13;;;6.60;64.70;;;;;;5012512;28;20805;-43
2021/03/22 00:55:13;;;;;;;22.50;4.27;;;6.60;64.80;;;;;;5027321;28;20460;-44
2021/03/22 00:57:39;;;;;;;28.20;5.90;;;6.50;64.90;;;;;;5008702;28;20515;-45
2021/03/22 01:00:08;;;;;;;11.80;3.80;;;6.50;65.20;;;;;;5013496;28;20813;-44
2021/03/22 01:02:34;;;;;;;13.97;4.67;;;6.50;65.60;;;;;;5027530;28;20456;-44
2021/03/22 01:05:01;;;;;;;11.33;4.67;;;6.50;65.40;;;;;;5010842;28;20464;-45
2021/03/22 01:07:29;;;;;;;16.30;5.30;;;6.50;65.70;;;;;;5024012;28;20897;-44
2021/03/22 01:09:55;;;;;;;15.27;4.40;;;6.50;65.70;;;;;;5012582;28;20464;-45
2021/03/22 01:12:22;;;;;;;18.93;5.40;;;6.50;65.90;;;;;;5009956;28;20452;-45
2021/03/22 01:14:48;;;;;;;18.30;4.23;;;6.50;66.00;;;;;;5011666;28;20477;-44
2021/03/22 01:17:14;;;;;;;19.20;5.00;;;6.50;66.10;;;;;;5008066;28;20571;-44
2021/03/22 01:19:41;;;;;;;14.23;5.20;;;6.40;66.10;;;;;;5025092;28;20465;-43
2021/03/22 01:22:07;;;;;;;19.43;5.37;;;6.40;66.20;;;;;;5023468;28;20461;-42
2021/03/22 01:24:35;;;;;;;16.80;5.20;;;6.40;66.20;;;;;;5026407;28;20459;-43
2021/03/22 01:27:06;;;;;;;14.77;4.53;;;6.50;66.30;;;;;;5025330;28;20457;-44
2021/03/22 01:29:38;;;;;;;12.33;4.37;;;6.50;66.30;;;;;;5008417;28;20460;-44
2021/03/22 01:32:12;;;;;;;13.63;4.23;;;6.50;66.30;;;;;;5025714;28;20455;-42
2021/03/22 01:34:38;;;;;;;18.87;5.67;;;6.50;66.30;;;;;;5025773;28;20493;-44
2021/03/22 01:37:06;;;;;;;24.67;8.20;;;6.50;66.40;;;;;;5009967;28;20583;-41
2021/03/22 01:39:36;;;;;;;13.23;5.00;;;6.50;66.40;;;;;;5010439;28;20452;-44
2021/03/22 01:42:37;;;;;;;10.00;4.90;;;6.50;66.60;;;;;;5026386;28;20452;-45
2021/03/22 01:45:08;;;;;;;20.70;6.77;;;6.50;66.70;;;;;;5009114;28;20559;-44
2021/03/22 01:47:35;;;;;;;12.37;4.40;;;6.50;66.50;;;;;;5012042;28;20568;-42
2021/03/22 01:50:18;;;;;;;13.37;4.60;;;6.50;66.40;;;;;;5009779;28;20559;-43
2021/03/22 01:52:46;;;;;;;15.40;4.33;;;6.50;66.40;;;;;;5024967;28;20472;-43
2021/03/22 01:55:14;;;;;;;21.80;4.37;;;6.60;66.10;;;;;;5010642;28;21030;-45
2021/03/22 01:57:43;;;;;;;13.63;3.73;;;6.60;66.10;;;;;;5010252;28;20503;-44
2021/03/22 02:00:28;;;;;;;10.47;4.00;;;6.50;66.30;;;;;;5010780;28;20479;-44
2021/03/22 02:03:05;;;;;;;20.57;4.30;;;6.50;66.20;;;;;;5009091;28;20522;-43
2021/03/22 02:05:33;;;;;;;22.37;4.20;;;6.50;66.20;;;;;;5009006;28;20463;-44
2021/03/22 02:08:08;;;;;;;17.70;4.50;;;6.50;66.30;;;;;;5025464;28;20463;-44
2021/03/22 02:10:36;;;;;;;13.30;4.47;;;6.50;66.50;;;;;;5006433;28;20463;-44
2021/03/22 02:13:04;;;;;;;15.80;3.60;;;6.50;66.70;;;;;;5002240;28;20543;-44
2021/03/22 02:15:30;;;;;;;17.20;3.80;;;6.50;66.50;;;;;;5005125;28;20459;-45
2021/03/22 02:18:44;;;;;;;14.83;4.77;;;6.60;66.30;;;;;;5008466;28;20492;-45
2021/03/22 02:21:48;;;;;;;10.33;4.40;;;6.60;66.20;;;;;;5006902;28;20465;-43
2021/03/22 02:24:23;;;;;;;16.97;5.03;;;6.50;66.20;;;;;;5008667;28;20474;-44
2021/03/22 02:26:57;;;;;;;14.70;4.17;;;6.50;66.30;;;;;;5009985;28;20966;-44
2021/03/22 02:29:24;;;;;;;13.27;3.47;;;6.50;66.40;;;;;;5009096;28;21003;-44
2021/03/22 02:32:10;;;;;;;12.37;3.30;;;6.60;66.70;;;;;;5008060;28;21015;-44
2021/03/22 02:35:06;;;;;;;20.53;5.03;;;6.60;66.10;;;;;;4997739;28;20553;-44
2021/03/22 02:37:51;;;;;;;16.40;4.17;;;6.60;65.90;;;;;;5008868;28;20476;-43
2021/03/22 02:40:47;;;;;;;16.13;4.27;;;6.50;66.00;;;;;;5010996;28;20484;-45
2021/03/22 02:43:18;;;;;;;8.60;3.70;;;6.50;66.30;;;;;;5025281;28;20492;-45
2021/03/22 02:45:45;;;;;;;13.73;3.97;;;6.50;66.60;;;;;;5009472;28;20471;-43
2021/03/22 02:48:24;;;;;;;10.80;3.47;;;6.50;66.20;;;;;;5008823;28;20455;-45
2021/03/22 02:50:56;;;;;;;11.90;3.10;;;6.60;65.90;;;;;;5009006;28;20463;-44
2021/03/22 02:53:51;;;;;;;15.57;4.00;;;6.60;65.70;;;;;;5025043;28;20505;-44
2021/03/22 02:56:37;;;;;;;9.77;3.90;;;6.60;65.40;;;;;;5008874;28;20463;-45
2021/03/22 02:59:15;;;;;;;9.80;3.20;;;6.50;65.70;;;;;;5010697;28;20502;-45
2021/03/22 03:01:43;;;;;;;12.33;3.43;;;6.60;65.80;;;;;;5010034;28;20459;-45
2021/03/22 03:04:14;;;;;;;8.40;3.60;;;6.60;65.40;;;;;;5008430;28;20456;-43
2021/03/22 03:06:54;;;;;;;10.97;3.50;;;6.60;65.70;;;;;;5009566;28;20459;-43
2021/03/22 03:09:24;;;;;;;11.50;3.20;;;6.50;65.70;;;;;;5010589;28;20594;-44
2021/03/22 03:11:51;;;;;;;12.70;3.73;;;6.50;65.60;;;;;;5008102;28;20539;-45
2021/03/22 03:14:18;;;;;;;10.80;3.30;;;6.50;65.60;;;;;;5008342;28;20555;-41
2021/03/22 03:16:45;;;;;;;8.93;2.97;;;6.50;65.30;;;;;;5009811;28;21095;-41
2021/03/22 03:19:11;;;;;;;13.93;3.10;;;6.50;65.30;;;;;;5023916;28;20475;-41
2021/03/22 03:21:40;;;;;;;14.13;3.90;;;6.50;65.60;;;;;;5008092;28;20464;-41
2021/03/22 03:24:10;;;;;;;10.27;3.30;;;6.60;66.00;;;;;;5008884;28;20460;-41
2021/03/22 03:26:37;;;;;;;10.90;3.20;;;6.60;65.60;;;;;;5006030;28;20457;-41
2021/03/22 03:29:07;;;;;;;12.10;2.93;;;6.60;65.20;;;;;;5012654;28;20452;-42
2021/03/22 03:31:37;;;;;;;13.93;3.00;;;6.60;65.20;;;;;;5026287;28;20561;-42
2021/03/22 03:34:08;;;;;;;10.93;4.33;;;6.50;65.40;;;;;;5012204;28;20775;-42
2021/03/22 03:36:34;;;;;;;6.30;3.20;;;6.60;65.60;;;;;;5012554;28;20786;-42
2021/03/22 03:39:03;;;;;;;8.73;2.57;;;6.60;65.30;;;;;;5013125;28;20555;-42
2021/03/22 03:41:29;;;;;;;13.03;6.10;;;6.60;65.10;;;;;;5013572;28;20514;-42
2021/03/22 03:43:56;;;;;;;9.63;3.07;;;6.50;65.10;;;;;;5029831;28;20464;-42
2021/03/22 03:46:25;;;;;;;15.70;3.77;;;6.60;65.20;;;;;;5027040;28;20464;-42
2021/03/22 03:48:51;;;;;;;6.53;4.30;;;6.60;65.70;;;;;;5011750;28;20444;-42
2021/03/22 03:51:18;;;;;;;10.77;3.50;;;6.60;65.10;;;;;;5026767;28;20488;-42
2021/03/22 03:53:44;;;;;;;6.53;2.40;;;6.60;65.00;;;;;;5028752;28;20456;-42
2021/03/22 03:56:10;;;;;;;5.83;2.33;;;6.60;65.30;;;;;;5028827;28;20454;-42
2021/03/22 03:58:37;;;;;;;10.17;2.90;;;6.60;64.90;;;;;;5013036;28;20475;-41
2021/03/22 04:01:06;;;;;;;11.93;2.60;;;6.60;65.00;;;;;;5026746;28;20460;-42
2021/03/22 04:03:40;;;;;;;15.83;4.77;;;6.50;65.30;;;;;;5011254;28;20532;-42
2021/03/22 04:06:22;;;;;;;17.57;4.63;;;6.50;65.60;;;;;;5010340;28;20467;-42
2021/03/22 04:08:55;;;;;;;6.80;3.03;;;6.50;65.90;;;;;;5010514;28;20757;-42
2021/03/22 04:11:28;;;;;;;12.10;3.50;;;6.60;66.10;;;;;;5011707;28;20468;-42
2021/03/22 04:13:55;;;;;;;7.90;3.00;;;6.60;66.00;;;;;;5011145;28;20468;-42
2021/03/22 04:16:26;;;;;;;12.10;4.27;;;6.60;65.90;;;;;;5025377;28;20563;-42
2021/03/22 04:18:53;;;;;;;22.30;3.47;;;6.50;66.00;;;;;;5012556;28;20498;-42
2021/03/22 04:21:24;;;;;;;8.67;3.33;;;6.50;65.90;;;;;;5011668;28;20486;-42
2021/03/22 04:23:52;;;;;;;6.93;2.77;;;6.50;66.00;;;;;;5012293;28;20460;-42
2021/03/22 04:26:19;;;;;;;11.13;3.10;;;6.50;66.00;;;;;;5012413;28;20545;-42
2021/03/22 04:28:46;;;;;;;11.40;3.10;;;6.50;66.10;;;;;;5009736;28;20471;-42
2021/03/22 04:31:15;;;;;;;16.63;4.10;;;6.50;66.00;;;;;;5026123;28;20464;-42
2021/03/22 04:33:42;;;;;;;11.53;3.80;;;6.50;66.00;;;;;;5010603;28;20464;-42
2021/03/22 04:36:09;;;;;;;14.53;3.33;;;6.50;66.30;;;;;;5009317;28;20510;-42
2021/03/22 04:38:36;;;;;;;6.90;2.80;;;6.50;66.40;;;;;;5012215;28;20507;-42
2021/03/22 04:41:03;;;;;;;11.53;3.70;;;6.50;66.30;;;;;;5025877;28;20462;-42
2021/03/22 04:43:30;;;;;;;14.67;3.77;;;6.50;66.40;;;;;;5011151;28;20460;-42
2021/03/22 04:45:56;;;;;;;8.90;3.40;;;6.60;66.60;;;;;;5013163;28;20441;-41
2021/03/22 04:48:23;;;;;;;11.70;4.03;;;6.60;66.50;;;;;;5023646;28;20823;-42
2021/03/22 04:50:49;;;;;;;15.43;4.37;;;6.60;66.50;;;;;;5011744;28;20523;-42
2021/03/22 04:53:18;;;;;;;9.10;3.33;;;6.50;66.90;;;;;;5026074;28;20970;-42
2021/03/22 04:55:45;;;;;;;18.60;5.37;;;6.50;66.80;;;;;;5010455;28;20472;-42
2021/03/22 04:58:12;;;;;;;7.03;4.17;;;6.50;67.20;;;;;;5024624;28;20494;-42
2021/03/22 05:00:42;;;;;;;9.20;3.80;;;6.50;67.70;;;;;;5010527;28;20472;-42
2021/03/22 05:03:10;;;;;;;10.37;4.30;;;6.50;68.00;;;;;;5007983;28;20487;-42
2021/03/22 05:05:38;;;;;;;11.17;3.70;;;6.50;68.30;;;;;;5009719;28;20536;-42
2021/03/22 05:08:06;;;;;;;9.93;3.70;;;6.50;68.50;;;;;;5011131;28;20464;-42
2021/03/22 05:10:36;;;;;;;8.17;3.97;;;6.50;68.60;;;;;;5010736;28;20496;-42
2021/03/22 05:13:07;;;;;;;13.20;5.43;;;6.40;69.20;;;;;;5009688;28;20500;-42
2021/03/22 05:15:34;;;;;;;8.57;3.83;;;6.50;69.50;;;;;;5009843;28;20563;-42
2021/03/22 05:18:01;;;;;;;9.87;3.83;;;6.40;69.30;;;;;;5011119;28;20488;-42
2021/03/22 05:20:37;;;;;;;7.63;3.87;;;6.40;69.40;;;;;;5023711;28;20824;-42
2021/03/22 05:23:09;;;;;;;8.70;3.70;;;6.40;69.50;;;;;;5007873;28;20460;-42
2021/03/22 05:25:35;;;;;;;5.60;3.63;;;6.50;68.90;;;;;;5022823;28;20755;-42
2021/03/22 05:28:03;;;;;;;11.40;4.23;;;6.40;69.10;;;;;;5026692;28;20838;-42
2021/03/22 05:30:30;;;;;;;10.87;3.70;;;6.40;69.00;;;;;;5008833;28;20464;-42
2021/03/22 05:33:03;;;;;;;13.83;4.70;;;6.40;69.10;;;;;;5009146;28;20459;-42
2021/03/22 05:35:30;;;;;;;6.80;3.57;;;6.40;69.20;;;;;;5009440;28;20460;-41
2021/03/22 05:37:57;;;;;;;7.50;4.00;;;6.40;69.20;;;;;;5024837;28;20484;-42
2021/03/22 05:40:50;;;;;;;5.97;3.63;;;6.40;69.20;;;;;;5007798;28;20957;-42
2021/03/22 05:43:40;;;;;;;10.47;3.43;;;6.40;69.20;;;;;;5012499;28;20456;-41
2021/03/22 05:46:16;;;;;;;10.10;3.60;;;6.40;69.10;;;;;;5022931;28;20914;-42
2021/03/22 05:49:07;;;;;;;10.50;4.03;;;6.30;69.30;;;;;;5009477;28;20506;-42
2021/03/22 05:52:02;;;;;;;10.53;3.70;;;6.40;69.20;;;;;;5009337;28;20460;-42
2021/03/22 05:55:00;;;;;;;11.57;3.47;;;6.40;69.30;;;;;;5011168;28;20445;-42
2021/03/22 05:57:38;;;;;;;11.30;4.07;;;6.50;69.30;;;;;;5005494;28;20838;-42
2021/03/22 06:00:14;;;;;;;10.00;4.23;;;6.50;69.20;;;;;;5007716;28;20459;-42
2021/03/22 06:03:11;;;;;;;8.57;4.17;;;6.50;69.20;;;;;;5011210;28;21004;-42
2021/03/22 06:05:49;;;;;;;7.63;5.47;;;6.40;69.40;;;;;;5008288;28;20514;-42
2021/03/22 06:08:38;;;;;;;10.13;4.33;;;6.40;69.60;;;;;;5024502;28;20468;-42
2021/03/22 06:11:31;;;;;;;7.90;3.80;;;6.50;70.00;;;;;;5019588;28;20501;-42
2021/03/22 06:14:07;;;;;;;6.27;4.10;;;6.50;70.10;;;;;;5015164;28;20828;-42
2021/03/22 06:16:38;;;;;;;8.17;3.90;;;6.50;70.20;;;;;;5007289;28;20484;-42
2021/03/22 06:19:08;;;;;;;10.33;4.80;;;6.50;70.20;;;;;;5007844;28;20468;-42
2021/03/22 06:21:37;;;;;;;9.47;4.87;;;6.50;70.40;;;;;;5009929;28;20456;-42
2021/03/22 06:24:22;;;;;;;9.70;4.40;;;6.50;70.20;;;;;;5009465;28;20847;-42
2021/03/22 06:26:54;;;;;;;7.90;3.80;;;6.50;70.40;;;;;;5010147;28;20466;-42
2021/03/22 06:29:38;;;;;;;8.50;4.40;;;6.50;70.40;;;;;;5010735;28;20483;-42
2021/03/22 06:32:21;;;;;;;15.07;4.40;;;6.50;70.60;;;;;;5009005;28;20460;-42
2021/03/22 06:34:57;;;;;;;10.40;4.87;;;6.50;70.50;;;;;;5009740;28;20544;-41
2021/03/22 06:37:34;;;;;;;9.00;4.00;;;6.60;70.50;;;;;;5009048;28;20664;-42
2021/03/22 06:40:08;;;;;;;9.43;5.83;;;6.60;70.30;;;;;;5010738;28;20452;-41
2021/03/22 06:42:35;;;;;;;9.17;5.30;;;6.60;70.50;;;;;;5009762;28;20945;-41
2021/03/22 06:45:24;;;;;;;9.57;4.63;;;6.60;70.20;;;;;;5008032;28;20952;-41
2021/03/22 06:47:50;;;;;;;15.37;5.20;;;6.70;70.20;;;;;;5009308;28;20828;-41
2021/03/22 06:50:30;;;;;;;7.87;3.80;;;6.70;70.20;;;;;;5008847;28;20456;-41
2021/03/22 06:52:56;;;;;;;8.97;4.27;;;6.70;69.70;;;;;;5010258;28;20456;-41
2021/03/22 06:55:36;;;;;;;6.50;4.17;;;6.70;69.80;;;;;;5021268;28;20548;-41
2021/03/22 06:58:02;;;;;;;9.63;4.83;;;6.70;69.70;;;;;;5009086;28;20833;-41
2021/03/22 07:00:31;;;;;;;9.57;3.90;;;6.80;69.70;;;;;;5024139;28;20538;-41
2021/03/22 07:03:03;;;;;;;17.10;5.03;;;6.70;69.60;;;;;;5008622;28;20551;-41
2021/03/22 07:05:38;;;;;;;13.63;5.43;;;6.70;69.90;;;;;;5008732;28;20464;-41
2021/03/22 07:08:10;;;;;;;11.37;4.10;;;6.70;70.10;;;;;;5025865;28;20489;-41
2021/03/22 07:11:02;;;;;;;9.03;4.37;;;6.70;70.00;;;;;;5008316;28;20471;-41
2021/03/22 07:13:30;;;;;;;7.40;3.47;;;6.80;69.50;;;;;;5009772;28;20867;-41
2021/03/22 07:16:21;;;;;;;5.60;4.00;;;6.80;69.80;;;;;;5008852;28;20492;-41
2021/03/22 07:19:14;;;;;;;6.53;4.10;;;6.80;69.50;;;;;;5010472;28;20488;-41
2021/03/22 07:22:19;;;;;;;11.10;4.10;;;6.80;69.70;;;;;;5007810;28;20462;-41
2021/03/22 07:25:01;;;;;;;8.70;3.90;;;6.80;70.00;;;;;;4996034;28;20476;-41
2021/03/22 07:28:18;;;;;;;10.93;3.70;;;6.80;70.20;;;;;;5024267;28;20456;-41
2021/03/22 07:31:18;;;;;;;8.60;3.30;;;6.90;70.00;;;;;;4989527;28;20464;-41
2021/03/22 07:34:22;;;;;;;14.30;4.90;;;7.00;69.60;;;;;;5008714;28;20474;-41
2021/03/22 07:37:07;;;;;;;8.97;3.80;;;7.00;69.60;;;;;;5009203;28;20950;-41
2021/03/22 07:39:51;;;;;;;7.90;4.90;;;7.10;69.10;;;;;;5009389;28;20460;-41
2021/03/22 07:42:24;;;;;;;8.47;4.07;;;7.10;69.00;;;;;;5008058;28;20448;-41
2021/03/22 07:45:15;;;;;;;6.73;4.27;;;7.10;69.10;;;;;;5009676;28;20460;-41
2021/03/22 07:48:09;;;;;;;8.90;4.70;;;7.10;69.20;;;;;;5007280;28;20458;-41
2021/03/22 07:50:38;;;;;;;10.47;3.90;;;7.10;69.20;;;;;;5009585;28;20451;-41
2021/03/22 07:53:45;;;;;;;8.07;4.20;;;7.20;69.00;;;;;;5008916;28;20460;-41
2021/03/22 07:56:26;;;;;;;8.90;3.77;;;7.30;68.80;;;;;;5008360;28;20456;-41
2021/03/22 07:59:10;;;;;;;8.97;3.83;;;7.30;68.80;;;;;;5006977;28;20487;-41
2021/03/22 08:01:58;;;;;;;8.77;4.20;;;7.40;68.40;;;;;;5007144;28;20464;-41
2021/03/22 08:04:53;;;;;;;7.73;3.43;;;7.40;68.30;;;;;;5008139;28;20471;-41
2021/03/22 08:07:34;;;;;;;6.53;3.77;;;7.50;67.70;;;;;;5004164;28;21003;-41
2021/03/22 08:10:22;;;;;;;8.30;4.03;;;7.50;67.60;;;;;;5022336;28;20491;-41
2021/03/22 08:13:11;;;;;;;7.17;3.27;;;7.60;67.60;;;;;;5010437;28;20474;-41
2021/03/22 08:16:08;;;;;;;6.50;4.20;;;7.60;67.50;;;;;;5011040;28;20465;-41
2021/03/22 08:18:41;;;;;;;6.93;3.43;;;7.70;67.30;;;;;;5012894;28;20533;-41
2021/03/22 08:21:24;;;;;;;5.90;3.43;;;7.70;67.60;;;;;;5012288;28;20460;-41
2021/03/22 08:24:10;;;;;;;5.20;3.13;;;7.80;67.50;;;;;;5025896;28;20452;-41
2021/03/22 08:26:49;;;;;;;8.20;3.57;;;7.90;67.20;;;;;;5028521;28;20474;-41
2021/03/22 08:29:29;;;;;;;7.50;3.43;;;7.90;66.70;;;;;;5028844;28;20467;-41
2021/03/22 08:32:14;;;;;;;14.87;4.50;;;8.00;66.40;;;;;;5014314;28;20464;-41
2021/03/22 08:34:53;;;;;;;5.83;3.27;;;8.10;65.90;;;;;;5012381;28;21029;-41
2021/03/22 08:37:30;;;;;;;11.97;3.50;;;8.20;65.70;;;;;;5027342;28;20722;-41
2021/03/22 08:40:10;;;;;;;4.27;3.20;;;8.20;65.50;;;;;;5012206;28;20976;-41
2021/03/22 08:42:42;;;;;;;8.37;3.33;;;8.20;65.10;;;;;;5012381;28;20467;-41
2021/03/22 08:45:12;;;;;;;7.90;3.43;;;8.30;65.10;;;;;;5025572;28;20460;-41
2021/03/22 08:47:57;;;;;;;4.50;3.40;;;8.30;65.10;;;;;;5010966;28;20468;-41
2021/03/22 08:50:27;;;;;;;6.20;2.90;;;8.30;64.70;;;;;;5011520;28;21242;-41
2021/03/22 08:53:11;;;;;;;4.77;2.80;;;8.30;64.80;;;;;;5027211;28;20518;-41
2021/03/22 08:55:41;;;;;;;6.80;3.70;;;8.30;65.10;;;;;;5009673;28;20464;-41
2021/03/22 08:58:35;;;;;;;7.23;3.00;;;8.30;64.40;;;;;;5011356;28;20480;-41
2021/03/22 09:01:08;;;;;;;5.60;3.50;;;8.30;64.60;;;;;;5012087;28;20466;-41
2021/03/22 09:03:37;;;;;;;5.43;3.07;;;8.40;64.70;;;;;;5011004;28;20453;-41
2021/03/22 09:06:14;;;;;;;7.17;4.20;;;8.40;64.80;;;;;;5008798;28;20495;-41
2021/03/22 09:08:54;;;;;;;6.00;3.70;;;8.40;64.30;;;;;;5011707;28;20488;-41
2021/03/22 09:11:50;;;;;;;4.63;3.30;;;8.50;63.90;;;;;;5011022;28;20814;-41
2021/03/22 09:14:19;;;;;;;3.40;2.90;;;8.60;63.70;;;;;;5026854;28;21045;-41
2021/03/22 09:16:51;;;;;;;6.97;3.90;;;8.60;63.40;;;;;;5010295;28;20507;-41
2021/03/22 09:19:21;;;;;;;8.77;3.20;;;8.60;64.10;;;;;;5010659;28;20577;-41
2021/03/22 09:21:52;;;;;;;5.60;4.43;;;8.70;63.40;;;;;;5011183;28;20949;-41
2021/03/22 09:24:37;;;;;;;5.27;3.80;;;8.70;63.70;;;;;;5011929;28;20460;-41
2021/03/22 09:27:16;;;;;;;7.10;3.90;;;8.70;63.40;;;;;;5011366;28;20518;-41
2021/03/22 09:29:50;;;;;;;7.37;3.40;;;8.80;63.10;;;;;;5011994;28;20935;-41
2021/03/22 09:32:27;;;;;;;6.23;3.77;;;8.90;62.80;;;;;;5010454;28;20948;-41
2021/03/22 09:35:00;;;;;;;4.60;3.27;;;8.90;62.50;;;;;;5011725;28;20459;-41
2021/03/22 09:38:22;;;;;;;6.50;2.93;;;9.10;62.60;;;;;;5010384;28;20491;-41
2021/03/22 09:40:53;;;;;;;6.90;3.63;;;9.10;62.20;;;;;;5011533;28;20815;-41
2021/03/22 09:43:28;;;;;;;6.20;3.77;;;9.20;62.00;;;;;;5011228;28;20459;-41
2021/03/22 09:45:55;;;;;;;6.47;3.17;;;9.30;61.60;;;;;;5010078;28;20445;-41
2021/03/22 09:48:33;;;;;;;8.00;4.03;;;9.30;61.60;;;;;;5010665;28;20543;-41
2021/03/22 09:51:00;;;;;;;10.30;3.70;;;9.30;61.70;;;;;;5009943;28;20944;-41
2021/03/22 09:53:34;;;;;;;7.10;3.50;;;9.20;62.20;;;;;;5010950;28;20531;-41
2021/03/22 09:56:08;;;;;;;4.40;3.40;;;9.10;62.40;;;;;;5010543;28;20456;-41
2021/03/22 09:58:38;;;;;;;7.13;3.80;;;9.10;62.40;;;;;;5025562;28;20484;-41
2021/03/22 10:01:35;;;;;;;6.93;3.67;;;9.10;62.30;;;;;;5010772;28;20487;-41
2021/03/22 10:04:17;;;;;;;4.53;3.30;;;9.00;62.80;;;;;;5010382;28;20452;-41
2021/03/22 10:06:52;;;;;;;5.77;3.03;;;8.90;63.00;;;;;;5010388;28;20492;-41
2021/03/22 10:09:43;;;;;;;6.40;3.40;;;8.90;64.00;;;;;;5010493;28;20452;-41
2021/03/22 10:12:33;;;;;;;6.07;3.40;;;8.90;64.10;;;;;;5010555;28;20551;-41
2021/03/22 10:15:12;;;;;;;6.40;3.03;;;8.90;63.80;;;;;;5010871;28;20463;-41
2021/03/22 10:17:52;;;;;;;5.63;3.40;;;8.90;63.50;;;;;;5025703;28;20540;-41
2021/03/22 10:20:31;;;;;;;5.60;3.17;;;8.90;63.10;;;;;;5008598;28;20535;-41
2021/03/22 10:23:11;;;;;;;4.20;2.87;;;8.90;63.00;;;;;;5007925;28;20988;-41
2021/03/22 10:25:43;;;;;;;6.77;4.03;;;8.80;63.10;;;;;;5011313;28;20451;-42
2021/03/22 10:28:23;;;;;;;6.37;3.67;;;8.70;63.90;;;;;;5009819;28;20878;-42
2021/03/22 10:31:03;;;;;;;7.37;3.60;;;8.70;64.70;;;;;;5011378;28;20460;-40
2021/03/22 10:33:31;;;;;;;6.53;3.13;;;8.70;65.10;;;;;;5008130;28;20798;-42
2021/03/22 10:36:04;;;;;;;5.70;3.70;;;8.60;65.20;;;;;;5023602;28;20459;-40
2021/03/22 10:38:34;;;;;;;5.10;3.40;;;8.70;65.90;;;;;;5010635;28;21013;-40
2021/03/22 10:41:04;;;;;;;4.07;3.20;;;8.70;66.00;;;;;;5010617;28;20499;-42
2021/03/22 10:43:35;;;;;;;11.20;4.10;;;8.80;65.80;;;;;;5010159;28;20483;-40
2021/03/22 10:46:21;;;;;;;8.23;4.03;;;8.80;66.10;;;;;;5010293;28;20456;-40
2021/03/22 10:49:23;;;;;;;8.30;3.40;;;8.90;66.40;;;;;;5010599;28;21046;-40
2021/03/22 10:51:52;;;;;;;5.20;3.50;;;9.10;65.90;;;;;;5007448;28;20462;-40
2021/03/22 10:54:38;;;;;;;6.90;4.00;;;9.20;64.10;;;;;;5006758;28;20488;-40
2021/03/22 10:57:05;;;;;;;3.17;2.87;;;9.20;63.90;;;;;;5006771;28;20515;-40
2021/03/22 10:59:41;;;;;;;4.70;2.90;;;9.20;64.20;;;;;;5011022;28;20963;-40
2021/03/22 11:02:34;;;;;;;5.43;3.53;;;9.10;64.80;;;;;;5019910;28;20471;-40
2021/03/22 11:05:06;;;;;;;5.63;3.17;;;9.00;65.60;;;;;;5012105;28;20459;-40
2021/03/22 11:07:32;;;;;;;3.10;2.80;;;9.00;66.20;;;;;;5010047;28;20457;-40
2021/03/22 11:10:22;;;;;;;4.83;3.33;;;9.00;66.70;;;;;;5023620;28;20456;-40
2021/03/22 11:12:51;;;;;;;4.23;2.93;;;9.00;66.80;;;;;;5010244;28;20960;-40
2021/03/22 11:15:38;;;;;;;4.00;2.90;;;9.00;67.20;;;;;;5010546;28;20998;-40
2021/03/22 11:18:16;;;;;;;10.23;3.53;;;9.00;66.40;;;;;;5006606;28;20487;-40
2021/03/22 11:20:49;;;;;;;6.47;3.13;;;9.00;66.30;;;;;;5012441;28;20455;-40
2021/03/22 11:23:31;;;;;;;4.30;3.07;;;9.00;65.90;;;;;;5006965;28;20462;-40
2021/03/22 11:26:18;;;;;;;4.27;2.17;;;9.10;65.90;;;;;;5010694;28;20518;-41
2021/03/22 11:28:45;;;;;;;5.60;2.80;;;9.10;65.90;;;;;;5009102;28;20892;-40
2021/03/22 11:31:30;;;;;;;6.33;2.70;;;9.20;65.10;;;;;;5010242;28;20551;-40
2021/03/22 11:34:05;;;;;;;2.57;2.00;;;9.30;64.80;;;;;;5009479;28;20468;-40
2021/03/22 11:36:32;;;;;;;3.37;2.50;;;9.30;63.80;;;;;;5011236;28;20472;-40
2021/03/22 11:39:18;;;;;;;4.47;3.03;;;9.40;63.50;;;;;;5026201;28;20496;-40
2021/03/22 11:42:00;;;;;;;10.23;3.40;;;9.50;63.50;;;;;;5024389;28;20468;-40
2021/03/22 11:44:33;;;;;;;5.70;3.20;;;9.50;62.50;;;;;;5010566;28;20545;-40
2021/03/22 11:47:26;;;;;;;2.63;2.23;;;9.50;62.70;;;;;;5007209;28;20870;-40
2021/03/22 11:49:56;;;;;;;3.70;3.23;;;9.50;63.10;;;;;;5027517;28;20531;-40
2021/03/22 11:52:31;;;;;;;4.67;3.00;;;9.60;63.20;;;;;;5013120;28;20550;-40
2021/03/22 11:55:28;;;;;;;4.60;3.17;;;9.70;62.60;;;;;;5013963;28;20495;-41
2021/03/22 11:57:54;;;;;;;4.30;3.17;;;9.70;62.70;;;;;;5013453;28;20497;-40
2021/03/22 12:00:20;;;;;;;2.53;2.20;;;9.90;62.10;;;;;;5026741;28;20559;-40
2021/03/22 12:03:21;;;;;;;4.53;2.73;;;10.00;61.00;;;;;;5011877;28;20817;-40
2021/03/22 12:06:13;;;;;;;4.07;2.50;;;10.00;60.70;;;;;;5023244;28;20460;-40
2021/03/22 12:08:45;;;;;;;2.87;2.17;;;10.10;60.70;;;;;;5012369;28;20864;-40
2021/03/22 12:11:24;;;;;;;3.87;3.13;;;10.00;60.50;;;;;;5010383;28;20456;-40
2021/03/22 12:13:53;;;;;;;6.23;3.37;;;10.00;60.80;;;;;;5010231;28;20454;-40
2021/03/22 12:16:23;;;;;;;3.13;2.60;;;10.00;60.80;;;;;;5012290;28;20482;-40
2021/03/22 12:18:52;;;;;;;4.10;3.30;;;10.00;60.90;;;;;;5026569;28;21014;-40
2021/03/22 12:21:19;;;;;;;6.60;3.43;;;10.00;61.10;;;;;;5013243;28;21007;-40
2021/03/22 12:23:46;;;;;;;4.20;3.67;;;10.10;61.40;;;;;;5012548;28;20463;-40
2021/03/22 12:26:18;;;;;;;5.93;3.50;;;10.00;61.60;;;;;;5011817;28;20452;-40
2021/03/22 12:28:56;;;;;;;7.53;4.43;;;10.00;61.70;;;;;;5011750;28;20469;-40
2021/03/22 12:31:25;;;;;;;5.50;3.50;;;10.00;62.30;;;;;;5011693;28;20844;-40
2021/03/22 12:33:52;;;;;;;4.60;3.43;;;10.00;61.90;;;;;;5013522;28;20495;-42
2021/03/22 12:36:19;;;;;;;4.60;3.30;;;10.10;62.00;;;;;;5014072;28;20470;-42
2021/03/22 12:38:45;;;;;;;5.73;3.30;;;10.00;62.30;;;;;;5011242;28;20946;-42
2021/03/22 12:41:21;;;;;;;5.40;3.30;;;10.00;62.00;;;;;;5013433;28;20451;-42
2021/03/22 12:43:47;;;;;;;4.97;2.70;;;10.00;62.20;;;;;;5012217;28;20460;-42
2021/03/22 12:46:14;;;;;;;3.80;3.20;;;10.00;62.00;;;;;;5027479;28;20457;-42
2021/03/22 12:48:42;;;;;;;4.30;2.80;;;10.00;62.50;;;;;;5013734;28;20460;-42
2021/03/22 12:51:09;;;;;;;3.83;2.80;;;10.00;62.20;;;;;;5020829;28;20497;-42
2021/03/22 12:53:35;;;;;;;9.70;3.67;;;10.10;62.00;;;;;;5026834;28;20464;-42
2021/03/22 12:56:02;;;;;;;5.03;3.10;;;10.10;61.70;;;;;;5023698;28;20460;-42
2021/03/22 12:58:28;;;;;;;4.40;2.63;;;10.20;61.80;;;;;;5026484;28;20507;-42
2021/03/22 13:00:56;;;;;;;5.63;3.47;;;10.30;61.90;;;;;;5024146;28;20456;-42
2021/03/22 13:03:27;;;;;;;3.17;2.80;;;10.50;61.40;;;;;;5023989;28;20456;-39
2021/03/22 13:05:55;;;;;;;3.77;3.33;;;10.60;61.00;;;;;;5023405;28;20457;-41
2021/03/22 13:08:29;;;;;;;5.27;3.40;;;10.70;60.40;;;;;;5011837;28;20472;-39
2021/03/22 13:10:57;;;;;;;6.33;3.10;;;10.80;59.90;;;;;;5012577;28;20460;-39
2021/03/22 13:13:24;;;;;;;5.93;3.23;;;10.70;59.50;;;;;;5010772;28;20472;-39
2021/03/22 13:15:57;;;;;;;8.03;3.87;;;10.50;59.40;;;;;;5012756;28;20716;-40
2021/03/22 13:18:26;;;;;;;6.63;3.33;;;10.30;59.80;;;;;;5011514;28;20496;-40
2021/03/22 13:20:57;;;;;;;5.43;3.07;;;10.20;61.00;;;;;;5010533;28;20467;-40
2021/03/22 13:23:25;;;;;;;4.70;2.83;;;10.10;61.80;;;;;;5024275;28;20841;-40
2021/03/22 13:25:53;;;;;;;8.03;2.83;;;10.00;62.00;;;;;;5010736;28;20459;-40
2021/03/22 13:28:25;;;;;;;4.37;2.60;;;9.90;61.60;;;;;;5010971;28;20452;-39
2021/03/22 13:30:57;;;;;;;4.83;2.50;;;9.80;62.10;;;;;;5011565;28;20829;-40
2021/03/22 13:33:26;;;;;;;5.80;3.63;;;9.70;62.40;;;;;;5010602;28;20811;-40